createdAt,value
2022-08-26T00:02:00.691Z,10.83
2022-08-26T00:04:29.485Z,16.90
2022-08-26T00:06:58.178Z,23.13
2022-08-26T00:09:27.810Z,19.33
2022-08-26T00:11:56.589Z,18.13
2022-08-26T00:14:31.248Z,20.77
2022-08-26T00:17:01.580Z,27.37
2022-08-26T00:19:29.941Z,21.93
2022-08-26T00:21:58.384Z,17.13
2022-08-26T00:24:26.930Z,8.40
2022-08-26T00:26:55.222Z,24.83
2022-08-26T00:29:23.450Z,10.07
2022-08-26T00:31:52.213Z,17.50
2022-08-26T00:34:22.024Z,18.80
2022-08-26T00:36:52.037Z,17.53
2022-08-26T00:39:21.287Z,17.40
2022-08-26T00:41:50.628Z,23.73
2022-08-26T00:44:19.745Z,15.67
2022-08-26T00:46:52.268Z,18.53
2022-08-26T00:49:26.561Z,14.10
2022-08-26T00:52:00.322Z,16.03
2022-08-26T00:54:34.661Z,18.73
2022-08-26T00:57:08.741Z,15.20
2022-08-26T00:59:46.866Z,9.77
2022-08-26T01:02:20.798Z,26.03
2022-08-26T01:04:55.521Z,14.37
2022-08-26T01:07:26.219Z,24.10
2022-08-26T01:09:55.922Z,14.33
2022-08-26T01:12:26.288Z,12.33
2022-08-26T01:14:54.691Z,12.67
2022-08-26T01:17:23.089Z,18.30
2022-08-26T01:19:55.535Z,19.77
2022-08-26T01:22:28.852Z,18.23
2022-08-26T01:24:59.922Z,19.53
2022-08-26T01:27:32.969Z,10.43
2022-08-26T01:30:03.509Z,12.70
2022-08-26T01:32:34.430Z,10.03
2022-08-26T01:35:03.691Z,10.77
2022-08-26T01:37:37.271Z,10.47
2022-08-26T01:40:18.547Z,12.60
2022-08-26T01:42:49.250Z,11.83
2022-08-26T01:45:22.411Z,11.57
2022-08-26T01:47:57.183Z,14.77
2022-08-26T01:50:30.726Z,28.53
2022-08-26T01:53:02.475Z,20.23
2022-08-26T01:55:34.137Z,29.93
2022-08-26T01:58:06.367Z,19.43
2022-08-26T02:00:35.924Z,14.67
2022-08-26T02:03:18.154Z,18.87
2022-08-26T02:05:48.777Z,25.60
2022-08-26T02:08:24.859Z,18.33
2022-08-26T02:10:55.807Z,17.63
2022-08-26T02:13:27.883Z,9.97
2022-08-26T02:15:56.569Z,15.00
2022-08-26T02:18:26.401Z,9.73
2022-08-26T02:20:57.237Z,17.43
2022-08-26T02:23:26.278Z,14.70
2022-08-26T02:26:01.438Z,9.03
2022-08-26T02:28:33.121Z,11.40
2022-08-26T02:31:01.778Z,19.17
2022-08-26T02:33:31.205Z,14.80
2022-08-26T02:36:00.491Z,14.07
2022-08-26T02:38:29.638Z,12.73
2022-08-26T02:40:59.186Z,10.73
2022-08-26T02:43:31.291Z,8.13
2022-08-26T02:46:02.393Z,11.43
2022-08-26T02:48:31.324Z,11.07
2022-08-26T02:51:01.851Z,18.37
2022-08-26T02:53:31.827Z,14.27
2022-08-26T02:56:05.475Z,8.77
2022-08-26T02:58:35.275Z,13.07
2022-08-26T03:01:04.959Z,24.40
2022-08-26T03:03:34.094Z,16.10
2022-08-26T03:06:02.428Z,11.67
2022-08-26T03:08:30.692Z,16.43
2022-08-26T03:10:59.322Z,15.57
2022-08-26T03:13:31.323Z,29.87
2022-08-26T03:16:02.443Z,9.47
2022-08-26T03:18:30.861Z,7.60
2022-08-26T03:20:59.332Z,10.63
2022-08-26T03:23:28.035Z,14.37
2022-08-26T03:25:56.866Z,6.70
2022-08-26T03:28:27.041Z,8.70
2022-08-26T03:30:57.166Z,9.70
2022-08-26T03:33:26.489Z,19.20
2022-08-26T03:35:55.712Z,18.90
2022-08-26T03:38:26.322Z,8.10
2022-08-26T03:40:55.632Z,20.37
2022-08-26T03:43:26.831Z,11.30
2022-08-26T03:45:56.572Z,12.80
2022-08-26T03:48:25.486Z,12.67
2022-08-26T03:50:53.630Z,9.83
2022-08-26T03:53:21.783Z,10.10
2022-08-26T03:55:51.822Z,16.97
2022-08-26T03:58:20.811Z,16.50
2022-08-26T04:00:50.111Z,28.07
2022-08-26T04:03:40.710Z,12.40
2022-08-26T04:06:09.313Z,16.73
2022-08-26T04:08:37.768Z,15.90
2022-08-26T04:11:07.944Z,20.20
2022-08-26T04:13:38.271Z,18.03
2022-08-26T04:16:06.991Z,18.13
2022-08-26T04:18:38.248Z,11.37
2022-08-26T04:21:15.315Z,9.17
2022-08-26T04:23:47.443Z,22.83
2022-08-26T04:26:16.519Z,17.03
2022-08-26T04:28:44.680Z,19.33
2022-08-26T04:31:14.808Z,32.57
2022-08-26T04:33:45.556Z,24.10
2022-08-26T04:36:15.067Z,21.33
2022-08-26T04:38:43.208Z,10.27
2022-08-26T04:41:15.097Z,17.93
2022-08-26T04:43:46.551Z,27.23
2022-08-26T04:46:18.930Z,22.17
2022-08-26T04:48:48.965Z,25.20
2022-08-26T04:51:17.191Z,11.00
2022-08-26T04:53:46.085Z,15.23
2022-08-26T04:56:15.631Z,22.50
2022-08-26T04:58:43.843Z,10.83
2022-08-26T05:01:12.096Z,13.07
2022-08-26T05:03:41.384Z,18.50
2022-08-26T05:06:12.400Z,16.03
2022-08-26T05:08:41.154Z,22.07
2022-08-26T05:11:10.294Z,19.43
2022-08-26T05:13:39.297Z,14.50
2022-08-26T05:16:11.606Z,15.03
2022-08-26T05:18:40.987Z,20.10
2022-08-26T05:21:20.219Z,21.70
2022-08-26T05:23:51.325Z,15.87
2022-08-26T05:26:23.105Z,18.77
2022-08-26T05:28:54.877Z,21.50
2022-08-26T05:31:34.388Z,19.23
2022-08-26T05:34:04.776Z,14.93
2022-08-26T05:36:37.136Z,18.40
2022-08-26T05:39:07.648Z,21.60
2022-08-26T05:41:41.593Z,24.73
2022-08-26T05:44:11.986Z,17.93
2022-08-26T05:46:41.709Z,13.60
2022-08-26T05:49:12.475Z,17.30
2022-08-26T05:51:46.465Z,18.00
2022-08-26T05:54:21.973Z,19.17
2022-08-26T05:56:50.588Z,24.07
2022-08-26T05:59:24.518Z,19.00
2022-08-26T06:01:54.867Z,20.93
2022-08-26T06:04:26.783Z,16.13
2022-08-26T06:07:00.576Z,27.10
2022-08-26T06:09:28.811Z,21.27
2022-08-26T06:11:58.934Z,21.33
2022-08-26T06:14:27.162Z,23.00
2022-08-26T06:16:55.519Z,25.37
2022-08-26T06:19:24.413Z,16.20
2022-08-26T06:21:54.743Z,23.73
2022-08-26T06:24:41.966Z,21.20
2022-08-26T06:27:15.154Z,15.00
2022-08-26T06:29:43.639Z,23.57
2022-08-26T06:32:11.851Z,29.23
2022-08-26T06:34:40.254Z,28.50
2022-08-26T06:37:09.013Z,9.37
2022-08-26T06:39:41.175Z,23.40
2022-08-26T06:42:11.784Z,11.80
2022-08-26T06:44:41.120Z,20.03
2022-08-26T06:47:09.468Z,16.73
2022-08-26T06:49:38.368Z,25.23
2022-08-26T06:52:08.146Z,22.13
2022-08-26T06:54:37.176Z,15.20
2022-08-26T06:57:08.914Z,24.73
2022-08-26T06:59:37.222Z,16.13
2022-08-26T07:02:06.259Z,20.37
2022-08-26T07:04:36.890Z,27.33
2022-08-26T07:07:05.424Z,24.40
2022-08-26T07:09:35.448Z,15.97
2022-08-26T07:12:06.924Z,23.23
2022-08-26T07:14:37.370Z,17.57
2022-08-26T07:17:07.345Z,23.10
2022-08-26T07:19:38.270Z,30.23
2022-08-26T07:22:08.575Z,21.07
2022-08-26T07:24:40.428Z,15.73
2022-08-26T07:27:12.999Z,27.17
2022-08-26T07:29:43.569Z,18.00
2022-08-26T07:32:13.359Z,21.80
2022-08-26T07:34:42.206Z,34.67
2022-08-26T07:37:10.741Z,19.20
2022-08-26T07:39:40.387Z,26.57
2022-08-26T07:42:10.130Z,32.17
2022-08-26T07:44:39.787Z,18.80
2022-08-26T07:47:25.276Z,25.07
2022-08-26T07:49:55.197Z,28.47
2022-08-26T07:52:26.584Z,23.73
2022-08-26T07:54:55.615Z,21.30
2022-08-26T07:57:24.320Z,30.50
2022-08-26T07:59:54.043Z,23.70
2022-08-26T08:02:26.290Z,36.40
2022-08-26T08:04:54.705Z,24.63
2022-08-26T08:07:25.748Z,23.33
2022-08-26T08:10:11.513Z,19.93
2022-08-26T08:12:40.382Z,23.20
2022-08-26T08:15:11.639Z,22.53
2022-08-26T08:17:43.484Z,30.53
2022-08-26T08:20:13.550Z,17.90
2022-08-26T08:22:42.667Z,24.13
2022-08-26T08:25:12.456Z,33.00
2022-08-26T08:27:42.525Z,18.17
2022-08-26T08:30:13.859Z,16.70
2022-08-26T08:32:44.582Z,28.57
2022-08-26T08:35:14.699Z,23.47
2022-08-26T08:37:44.381Z,25.90
2022-08-26T08:40:18.494Z,17.73
2022-08-26T08:45:26.984Z,16.80
2022-08-26T08:47:58.943Z,27.27
2022-08-26T08:50:31.418Z,34.77
2022-08-26T08:53:13.727Z,19.73
2022-08-26T09:03:31.090Z,20.10
2022-08-26T09:06:02.634Z,13.80
2022-08-26T09:08:35.860Z,13.30
2022-08-26T09:11:05.361Z,14.00
2022-08-26T09:13:35.721Z,13.30
2022-08-26T09:16:08.380Z,24.10
2022-08-26T09:19:02.916Z,29.23
2022-08-26T09:21:32.418Z,25.67
2022-08-26T09:24:01.505Z,34.50
2022-08-26T09:26:31.876Z,25.77
2022-08-26T09:29:02.576Z,20.53
2022-08-26T09:31:33.663Z,29.70
2022-08-26T09:34:17.241Z,29.70
2022-08-26T09:36:49.219Z,22.73
2022-08-26T09:39:30.430Z,24.13
2022-08-26T09:42:09.738Z,25.70
2022-08-26T09:44:56.689Z,22.87
2022-08-26T09:47:28.604Z,18.03
2022-08-26T09:50:09.459Z,32.97
2022-08-26T09:52:40.642Z,15.00
2022-08-26T09:55:15.672Z,29.43
2022-08-26T09:57:51.228Z,19.73
2022-08-26T10:00:29.111Z,25.83
2022-08-26T10:02:58.310Z,20.60
2022-08-26T10:05:41.089Z,27.90
2022-08-26T10:08:22.988Z,43.27
2022-08-26T10:10:53.160Z,27.00
2022-08-26T10:13:27.998Z,25.90
2022-08-26T10:16:05.614Z,16.67
2022-08-26T10:18:37.038Z,25.73
2022-08-26T10:21:12.064Z,23.33
2022-08-26T10:23:43.945Z,20.93
2022-08-26T10:26:17.569Z,23.27
2022-08-26T10:28:54.192Z,23.17
2022-08-26T10:31:28.947Z,26.43
2022-08-26T10:34:00.443Z,20.77
2022-08-26T10:37:14.819Z,19.50
2022-08-26T10:39:55.246Z,16.23
2022-08-26T10:42:35.517Z,14.43
2022-08-26T10:45:15.013Z,11.13
2022-08-26T10:47:50.865Z,19.90
2022-08-26T10:50:21.043Z,20.27
2022-08-26T10:53:03.194Z,20.73
2022-08-26T10:55:37.388Z,19.67
2022-08-26T10:58:26.725Z,14.43
2022-08-26T11:01:23.268Z,17.43
2022-08-26T11:03:58.877Z,11.53
2022-08-26T11:06:29.775Z,18.70
2022-08-26T11:09:02.681Z,23.53
2022-08-26T11:11:51.235Z,22.43
2022-08-26T11:14:41.016Z,26.27
2022-08-26T11:17:58.436Z,25.13
2022-08-26T11:20:41.556Z,17.67
2022-08-26T11:23:41.685Z,16.40
2022-08-26T11:26:35.852Z,22.57
2022-08-26T11:29:12.044Z,18.53
2022-08-26T11:31:56.553Z,11.63
2022-08-26T11:34:52.235Z,22.53
2022-08-26T11:39:57.312Z,17.53
2022-08-26T11:42:36.957Z,20.30
2022-08-26T11:45:18.584Z,13.33
2022-08-26T11:47:49.366Z,24.73
2022-08-26T11:50:21.561Z,16.13
2022-08-26T11:52:54.075Z,22.93
2022-08-26T11:55:23.478Z,22.33
2022-08-26T11:57:57.322Z,12.67
2022-08-26T12:00:33.399Z,17.97
2022-08-26T12:03:07.635Z,23.13
2022-08-26T12:05:43.907Z,17.80
2022-08-26T12:08:17.626Z,17.63
2022-08-26T12:10:46.219Z,17.90
2022-08-26T12:13:23.296Z,15.10
2022-08-26T12:15:55.921Z,18.27
2022-08-26T12:18:29.511Z,44.57
2022-08-26T12:21:01.487Z,24.23
2022-08-26T12:23:41.770Z,24.13
2022-08-26T12:26:20.626Z,19.53
2022-08-26T12:28:53.607Z,35.27
2022-08-26T12:31:25.278Z,17.93
2022-08-26T12:33:54.234Z,10.73
2022-08-26T12:36:28.545Z,26.17
2022-08-26T12:38:58.563Z,20.60
2022-08-26T12:41:43.855Z,10.90
2022-08-26T12:44:54.247Z,15.57
2022-08-26T12:47:32.704Z,13.60
2022-08-26T12:50:18.412Z,21.63
2022-08-26T12:52:57.530Z,16.00
2022-08-26T12:55:36.631Z,12.90
2022-08-26T12:58:15.278Z,36.70
2022-08-26T13:00:46.384Z,20.93
2022-08-26T13:03:32.689Z,15.97
2022-08-26T13:06:17.095Z,16.80
2022-08-26T13:08:48.631Z,17.63
2022-08-26T13:11:20.801Z,29.03
2022-08-26T13:13:51.768Z,20.83
2022-08-26T13:16:22.199Z,18.10
2022-08-26T13:18:52.541Z,16.80
2022-08-26T13:21:22.778Z,23.17
2022-08-26T13:23:51.946Z,13.47
2022-08-26T13:26:20.553Z,7.90
2022-08-26T13:29:01.549Z,10.00
2022-08-26T13:31:34.650Z,31.53
2022-08-26T13:34:03.664Z,18.13
2022-08-26T13:36:32.049Z,27.80
2022-08-26T13:39:00.753Z,19.53
2022-08-26T13:41:29.133Z,12.47
2022-08-26T13:43:58.884Z,15.50
2022-08-26T13:46:28.293Z,18.60
2022-08-26T13:48:58.593Z,17.23
2022-08-26T13:51:28.653Z,14.67
2022-08-26T13:53:57.501Z,19.93
2022-08-26T13:56:27.523Z,15.07
2022-08-26T13:58:56.400Z,13.80
2022-08-26T14:01:25.340Z,22.57
2022-08-26T14:03:53.580Z,22.33
2022-08-26T14:06:23.884Z,14.27
2022-08-26T14:08:52.040Z,8.50
2022-08-26T14:11:20.619Z,12.87
2022-08-26T14:13:48.785Z,19.93
2022-08-26T14:16:23.147Z,12.50
2022-08-26T14:18:51.781Z,9.40
2022-08-26T14:21:20.662Z,14.43
2022-08-26T14:23:50.292Z,10.30
2022-08-26T14:26:28.443Z,29.83
2022-08-26T14:28:59.128Z,33.90
2022-08-26T14:31:29.337Z,12.80
2022-08-26T14:33:59.839Z,15.27
2022-08-26T14:36:32.429Z,19.63
2022-08-26T14:39:05.071Z,15.13
2022-08-26T14:41:34.370Z,27.73
2022-08-26T14:44:05.792Z,16.97
2022-08-26T14:46:43.769Z,14.00
2022-08-26T14:49:12.125Z,19.40
2022-08-26T14:51:41.032Z,10.17
2022-08-26T14:54:14.869Z,13.23
2022-08-26T14:56:47.267Z,17.43
2022-08-26T14:59:17.685Z,21.77
2022-08-26T15:01:46.474Z,25.00
2022-08-26T15:04:14.951Z,19.83
2022-08-26T15:06:43.304Z,21.10
2022-08-26T15:09:13.438Z,29.63
2022-08-26T15:11:41.571Z,12.43
2022-08-26T15:14:14.698Z,13.20
2022-08-26T15:16:48.040Z,20.30
2022-08-26T15:19:16.553Z,19.93
2022-08-26T15:21:45.757Z,20.43
2022-08-26T15:24:17.296Z,17.10
2022-08-26T15:26:46.810Z,11.97
2022-08-26T15:29:15.516Z,21.57
2022-08-26T15:31:43.850Z,8.90
2022-08-26T15:34:16.694Z,20.83
2022-08-26T15:36:46.982Z,11.17
2022-08-26T15:39:18.260Z,13.17
2022-08-26T15:41:46.503Z,30.50
2022-08-26T15:44:17.945Z,26.63
2022-08-26T15:46:46.750Z,11.50
2022-08-26T15:49:17.505Z,20.17
2022-08-26T15:51:50.381Z,16.13
2022-08-26T15:54:22.488Z,19.50
2022-08-26T15:56:52.446Z,28.10
2022-08-26T15:59:22.509Z,10.53
2022-08-26T16:01:50.863Z,11.33
2022-08-26T16:04:19.122Z,12.07
2022-08-26T16:06:50.434Z,18.73
2022-08-26T16:09:21.322Z,17.33
2022-08-26T16:11:50.430Z,25.30
2022-08-26T16:14:18.578Z,20.27
2022-08-26T16:16:47.234Z,24.50
2022-08-26T16:19:15.542Z,21.57
2022-08-26T16:21:44.736Z,24.70
2022-08-26T16:24:13.167Z,21.20
2022-08-26T16:26:45.340Z,23.00
2022-08-26T16:29:15.544Z,28.40
2022-08-26T16:36:35.655Z,24.80
2022-08-26T16:39:03.943Z,21.47
2022-08-26T16:41:32.894Z,16.27
2022-08-26T16:44:02.830Z,20.73
2022-08-26T16:46:31.381Z,17.07
2022-08-26T16:49:03.688Z,27.30
2022-08-26T16:51:38.080Z,20.27
2022-08-26T16:54:08.830Z,16.80
2022-08-26T16:56:37.892Z,29.27
2022-08-26T16:59:11.743Z,19.10
2022-08-26T17:01:40.093Z,13.13
2022-08-26T17:04:08.373Z,13.03
2022-08-26T17:06:36.642Z,26.13
2022-08-26T17:09:05.517Z,21.30
2022-08-26T17:11:34.219Z,17.20
2022-08-26T17:14:02.967Z,20.17
2022-08-26T17:16:33.400Z,22.10
2022-08-26T17:19:01.780Z,21.70
2022-08-26T17:21:30.151Z,27.83
2022-08-26T17:23:58.609Z,21.57
2022-08-26T17:26:27.113Z,17.10
2022-08-26T17:28:56.047Z,11.20
2022-08-26T17:31:25.206Z,17.17
2022-08-26T17:33:55.581Z,19.20
2022-08-26T17:36:27.521Z,28.90
2022-08-26T17:38:57.563Z,17.80
2022-08-26T17:41:26.431Z,20.47
2022-08-26T17:43:55.067Z,19.53
2022-08-26T17:46:23.638Z,25.13
2022-08-26T17:48:51.803Z,31.23
2022-08-26T17:51:23.563Z,17.90
2022-08-26T17:53:52.671Z,8.23
2022-08-26T17:56:24.271Z,17.33
2022-08-26T17:58:53.944Z,27.27
2022-08-26T18:01:26.106Z,15.67
2022-08-26T18:04:00.091Z,18.97
2022-08-26T18:06:31.679Z,10.00
2022-08-26T18:09:00.967Z,36.27
2022-08-26T18:11:29.982Z,19.33
2022-08-26T18:13:58.195Z,23.33
2022-08-26T18:16:26.564Z,26.23
2022-08-26T18:18:55.330Z,18.50
2022-08-26T18:21:25.856Z,21.87
2022-08-26T18:23:56.421Z,27.60
2022-08-26T18:26:27.906Z,28.23
2022-08-26T18:28:57.384Z,20.30
2022-08-26T18:31:26.160Z,13.73
2022-08-26T18:33:54.497Z,14.73
2022-08-26T18:36:25.628Z,18.87
2022-08-26T18:38:56.022Z,15.73
2022-08-26T18:41:27.110Z,37.37
2022-08-26T18:43:56.091Z,20.30
2022-08-26T18:46:26.150Z,33.27
2022-08-26T18:48:54.880Z,18.53
2022-08-26T18:51:25.316Z,26.23
2022-08-26T18:53:54.278Z,21.17
2022-08-26T18:56:24.278Z,20.60
2022-08-26T18:58:52.698Z,24.00
2022-08-26T19:01:25.505Z,17.17
2022-08-26T19:03:55.852Z,25.07
2022-08-26T19:06:25.355Z,12.43
2022-08-26T19:08:53.936Z,17.70
2022-08-26T19:11:32.484Z,21.13
2022-08-26T19:14:07.792Z,18.93
2022-08-26T19:16:37.500Z,15.30
2022-08-26T19:19:07.090Z,21.27
2022-08-26T19:21:37.079Z,29.57
2022-08-26T19:24:09.388Z,17.50
2022-08-26T19:26:39.311Z,16.20
2022-08-26T19:29:07.773Z,16.80
2022-08-26T19:31:36.503Z,14.13
2022-08-26T19:34:05.467Z,19.57
2022-08-26T19:36:34.520Z,10.93
2022-08-26T19:39:07.665Z,18.93
2022-08-26T19:41:40.807Z,14.30
2022-08-26T19:44:13.037Z,17.47
2022-08-26T19:46:41.747Z,27.53
2022-08-26T19:49:09.877Z,17.63
2022-08-26T19:51:38.170Z,13.37
2022-08-26T19:54:06.629Z,25.93
2022-08-26T19:56:36.643Z,24.90
2022-08-26T19:59:06.143Z,27.37
2022-08-26T20:01:34.421Z,24.53
2022-08-26T20:04:03.023Z,29.07
2022-08-26T20:06:31.488Z,30.67
2022-08-26T20:08:59.726Z,37.10
2022-08-26T20:11:28.218Z,20.40
2022-08-26T20:13:57.231Z,21.67
2022-08-26T20:16:26.994Z,27.50
2022-08-26T20:19:12.616Z,49.37
2022-08-26T20:21:42.610Z,37.90
2022-08-26T20:24:13.653Z,44.80
2022-08-26T20:26:43.675Z,49.00
2022-08-26T20:29:13.680Z,48.67
2022-08-26T20:31:44.222Z,50.20
2022-08-26T20:34:13.332Z,38.17
2022-08-26T20:36:44.662Z,41.57
2022-08-26T20:39:13.148Z,54.27
2022-08-26T20:41:41.614Z,43.50
2022-08-26T20:44:10.816Z,42.47
2022-08-26T20:46:39.004Z,41.77
2022-08-26T20:49:09.099Z,34.87
2022-08-26T20:51:38.612Z,37.60
2022-08-26T20:54:08.310Z,40.97
2022-08-26T20:56:37.914Z,51.17
2022-08-26T20:59:07.659Z,49.63
2022-08-26T21:01:42.412Z,33.80
2022-08-26T21:04:15.414Z,51.37
2022-08-26T21:06:47.239Z,44.93
2022-08-26T21:09:21.488Z,43.00
2022-08-26T21:11:49.978Z,73.00
2022-08-26T21:14:19.087Z,50.47
2022-08-26T21:16:48.156Z,49.80
2022-08-26T21:19:19.807Z,37.83
2022-08-26T21:21:49.340Z,80.57
2022-08-26T21:24:18.183Z,50.97
2022-08-26T21:26:49.033Z,44.53
2022-08-26T21:29:17.406Z,37.70
2022-08-26T21:31:46.685Z,55.10
2022-08-26T21:34:15.878Z,57.73
2022-08-26T21:36:46.298Z,65.87
2022-08-26T21:39:14.942Z,55.00
2022-08-26T21:41:44.168Z,44.83
2022-08-26T21:44:13.857Z,49.37
2022-08-26T21:46:44.501Z,63.40
2022-08-26T21:49:15.391Z,45.63
2022-08-26T21:51:47.494Z,40.13
2022-08-26T21:54:15.937Z,48.90
2022-08-26T21:56:47.255Z,61.77
2022-08-26T21:59:17.600Z,53.30
2022-08-26T22:01:46.135Z,52.20
2022-08-26T22:04:14.408Z,72.43
2022-08-26T22:06:44.629Z,50.20
2022-08-26T22:09:15.670Z,60.37
2022-08-26T22:11:44.499Z,54.13
2022-08-26T22:14:13.001Z,71.53
2022-08-26T22:16:41.699Z,34.77
2022-08-26T22:19:20.054Z,41.70
2022-08-26T22:21:50.210Z,45.43
2022-08-26T22:24:21.082Z,51.03
2022-08-26T22:26:50.134Z,42.73
2022-08-26T22:29:18.861Z,33.63
2022-08-26T22:31:47.453Z,36.27
2022-08-26T22:34:17.493Z,55.87
2022-08-26T22:36:49.180Z,51.07
2022-08-26T22:39:21.090Z,38.83
2022-08-26T22:41:49.870Z,37.20
2022-08-26T22:44:19.485Z,50.70
2022-08-26T22:46:48.434Z,54.33
2022-08-26T22:49:17.155Z,37.00
2022-08-26T22:51:45.834Z,58.20
2022-08-26T22:54:14.435Z,71.60
2022-08-26T22:56:44.793Z,77.13
2022-08-26T22:59:13.588Z,56.57
2022-08-26T23:01:44.787Z,51.13
2022-08-26T23:04:13.520Z,43.80
2022-08-26T23:06:47.710Z,51.20
2022-08-26T23:09:18.429Z,35.27
2022-08-26T23:11:49.808Z,42.73
2022-08-26T23:14:19.705Z,56.33
2022-08-26T23:16:49.365Z,61.67
2022-08-26T23:19:21.353Z,60.07
2022-08-26T23:21:50.645Z,73.60
2022-08-26T23:24:19.432Z,73.87
2022-08-26T23:26:49.665Z,54.20
2022-08-26T23:29:17.943Z,62.40
2022-08-26T23:31:46.295Z,59.30
2022-08-26T23:34:32.309Z,40.03
2022-08-26T23:37:01.460Z,60.90
2022-08-26T23:39:30.196Z,59.43
2022-08-26T23:42:01.771Z,72.47
2022-08-26T23:44:30.694Z,74.37
2022-08-26T23:46:59.210Z,53.30
2022-08-26T23:49:28.068Z,92.83
2022-08-26T23:52:13.647Z,73.03
2022-08-26T23:54:41.919Z,76.87
2022-08-26T23:57:11.740Z,66.63
2022-08-26T23:59:40.319Z,54.93
